Terminal Aerodrome Forecast
Issued by NWS

Home | Current Version | Previous Version | Text Only | Print | Product List | Glossary On
Versions: 1 2 3 4 5 6 7 8 9 10 11 12 13 14 15 16 17 18 19 20 21 22 23 24 25 26 27 28 29 30 31 32 33 34 35 36 37 38 39
000
FTUS41 KBOX 302331
TAFMHT
TAF
KMHT 302331Z 3100/3124 20007KT P6SM SCT250
     FM310300 20006KT P6SM BKN150
     FM310700 20006KT P6SM BKN020
     FM310900 21006KT 6SM BR BKN010
     FM311500 22008KT P6SM BKN025
     FM311700 22009KT P6SM BKN130
     FM312200 22006KT 5SM -SHRA VCTS OVC060CB=

USA.gov is the U.S. government's official web portal to all federal, state and local government web resources and services.